Time;durP1;ratioP1;P1;durP2;ratioP2;P2;SDS_P1;SDS_P2;PMS_P1;PMS_P2;Temp;Humidity;BMP_temperature;BMP_pressure;BME280_temperature;BME280_humidity;BME280_pressure;Samples;Min_cycle;Max_cycle;Signal;HPM_P1;HPM_P2
2023/09/30 00:00:27;;;;;;;7.65;2.40;;;12.80;99.90;;;;;;5073011;28;20039;-94
2023/09/30 00:02:52;;;;;;;8.38;2.67;;;12.80;99.90;;;;;;5072301;28;20094;-94
2023/09/30 00:05:19;;;;;;;6.57;2.33;;;12.80;99.90;;;;;;5022733;28;20476;-93
2023/09/30 00:07:46;;;;;;;6.20;1.83;;;12.70;99.90;;;;;;5042894;28;20044;-92
2023/09/30 00:10:12;;;;;;;6.40;1.67;;;12.70;99.90;;;;;;5066058;28;20044;-92
2023/09/30 00:12:38;;;;;;;5.88;1.90;;;12.70;99.90;;;;;;5059339;28;20461;-93
2023/09/30 00:15:04;;;;;;;7.78;2.05;;;12.70;99.90;;;;;;5059037;28;20123;-94
2023/09/30 00:17:30;;;;;;;8.35;1.98;;;12.60;99.90;;;;;;5059185;28;20072;-93
2023/09/30 00:19:56;;;;;;;6.82;1.85;;;12.60;99.90;;;;;;5058837;28;20479;-93
2023/09/30 00:22:21;;;;;;;8.38;1.80;;;12.60;99.90;;;;;;5026269;28;20043;-93
2023/09/30 00:24:48;;;;;;;8.07;1.65;;;12.60;99.90;;;;;;5058641;28;20090;-95
2023/09/30 00:27:14;;;;;;;6.22;1.60;;;12.60;99.90;;;;;;5059100;28;20032;-93
2023/09/30 00:29:39;;;;;;;7.00;1.75;;;12.60;99.90;;;;;;5059436;28;20391;-93
2023/09/30 00:32:05;;;;;;;8.57;1.98;;;12.50;99.90;;;;;;5075855;28;20479;-94
2023/09/30 00:34:40;;;;;;;9.05;2.00;;;12.60;99.90;;;;;;5058939;28;20410;-94
2023/09/30 00:37:06;;;;;;;6.88;2.10;;;12.50;99.90;;;;;;5062592;28;20040;-93
2023/09/30 00:39:33;;;;;;;7.97;2.08;;;12.50;99.90;;;;;;5058849;28;20482;-92
2023/09/30 00:41:58;;;;;;;5.75;1.70;;;12.60;99.90;;;;;;5058515;28;20036;-93
2023/09/30 00:44:26;;;;;;;7.13;1.75;;;12.60;99.90;;;;;;5042032;28;20047;-94
2023/09/30 00:46:51;;;;;;;;;;;12.50;99.90;;;;;;5042388;28;20047;-94
2023/09/30 00:49:18;;;;;;;6.18;1.70;;;12.50;99.90;;;;;;5075041;28;19916;-93
2023/09/30 00:51:46;;;;;;;6.50;1.33;;;12.50;99.90;;;;;;5042488;28;20036;-95
2023/09/30 00:54:12;;;;;;;7.30;1.63;;;12.50;99.90;;;;;;5041822;28;20044;-94
2023/09/30 00:56:46;;;;;;;7.85;1.90;;;12.50;99.90;;;;;;5058024;28;20052;-92
2023/09/30 00:59:15;;;;;;;9.07;1.98;;;12.50;99.90;;;;;;5029283;28;20519;-94
2023/09/30 01:01:43;;;;;;;8.77;1.70;;;12.50;99.90;;;;;;5019505;28;20037;-93
2023/09/30 01:04:10;;;;;;;7.00;2.00;;;12.50;99.90;;;;;;5039515;28;20048;-93
2023/09/30 01:06:36;;;;;;;7.43;1.95;;;12.50;99.90;;;;;;5041933;28;20068;-92
2023/09/30 01:09:03;;;;;;;7.68;1.70;;;12.40;99.90;;;;;;5041867;28;20059;-93
2023/09/30 01:11:29;;;;;;;11.47;1.73;;;12.40;99.90;;;;;;5025982;28;20036;-93
2023/09/30 01:13:55;;;;;;;9.60;2.10;;;12.40;99.90;;;;;;5033991;28;20060;-92
2023/09/30 01:16:21;;;;;;;6.45;1.83;;;12.40;99.90;;;;;;5038410;28;20043;-92
2023/09/30 01:18:47;;;;;;;9.40;2.05;;;12.40;99.90;;;;;;5041302;28;20127;-92
2023/09/30 01:21:12;;;;;;;6.97;1.40;;;12.40;99.90;;;;;;5062813;28;20047;-92
2023/09/30 01:23:38;;;;;;;6.60;1.85;;;12.40;99.90;;;;;;5041259;28;20113;-93
2023/09/30 01:26:14;;;;;;;4.57;1.67;;;12.40;99.90;;;;;;5041203;28;20123;-93
2023/09/30 01:28:40;;;;;;;5.90;1.77;;;12.50;99.90;;;;;;5041193;28;20040;-92
2023/09/30 01:31:06;;;;;;;6.13;1.58;;;12.50;99.90;;;;;;5025369;28;20460;-92
2023/09/30 01:33:32;;;;;;;6.43;1.45;;;12.50;99.90;;;;;;5041019;28;20102;-92
2023/09/30 01:36:02;;;;;;;9.00;1.97;;;12.50;99.90;;;;;;5048437;28;20033;-92
2023/09/30 01:38:27;;;;;;;6.30;1.73;;;12.40;99.90;;;;;;5024781;28;20558;-93
2023/09/30 01:40:54;;;;;;;6.90;1.80;;;12.40;99.90;;;;;;5020689;28;20173;-93
2023/09/30 01:43:19;;;;;;;6.75;1.80;;;12.50;99.90;;;;;;5055407;28;20045;-92
2023/09/30 01:45:45;;;;;;;8.07;1.98;;;12.50;99.90;;;;;;5051669;28;20025;-93
2023/09/30 01:48:11;;;;;;;9.48;2.20;;;12.40;99.90;;;;;;5024382;28;20044;-94
2023/09/30 01:50:38;;;;;;;3.67;1.30;;;12.50;99.90;;;;;;5008918;28;20029;-93
2023/09/30 01:53:06;;;;;;;7.50;1.83;;;12.50;99.90;;;;;;5019186;28;20032;-92
2023/09/30 01:55:33;;;;;;;6.10;2.08;;;12.50;99.90;;;;;;5040989;28;20052;-93
2023/09/30 01:58:02;;;;;;;4.22;1.73;;;12.50;99.90;;;;;;5058939;28;20063;-95
2023/09/30 02:00:28;;;;;;;6.43;1.40;;;12.50;99.90;;;;;;5061498;28;20519;-92
2023/09/30 02:02:57;;;;;;;9.18;2.10;;;12.50;99.90;;;;;;5061088;28;20445;-94
2023/09/30 02:05:23;;;;;;;9.05;2.05;;;12.50;99.90;;;;;;5060961;28;20123;-93
2023/09/30 02:07:50;;;;;;;5.57;1.40;;;12.50;99.90;;;;;;5057342;28;20040;-94
2023/09/30 02:10:18;;;;;;;7.45;1.92;;;12.50;99.90;;;;;;5041452;28;20492;-95
2023/09/30 02:12:45;;;;;;;6.53;1.50;;;12.40;99.90;;;;;;5076263;28;20093;-94
2023/09/30 02:15:11;;;;;;;8.30;1.87;;;12.40;99.90;;;;;;5057402;28;20483;-92
2023/09/30 02:17:37;;;;;;;8.13;1.57;;;12.40;99.90;;;;;;5043455;28;20036;-93
2023/09/30 02:20:07;;;;;;;6.57;1.80;;;12.30;99.90;;;;;;5043525;28;20105;-93
2023/09/30 02:22:36;;;;;;;8.38;1.70;;;12.30;99.90;;;;;;5044671;28;20039;-92
2023/09/30 02:25:02;;;;;;;4.95;1.42;;;12.30;99.90;;;;;;5076892;28;20044;-94
2023/09/30 02:27:28;;;;;;;4.88;2.03;;;12.30;99.90;;;;;;5043642;28;20132;-95
2023/09/30 02:29:54;;;;;;;7.80;1.80;;;12.30;99.90;;;;;;5043833;28;20032;-92
2023/09/30 02:32:19;;;;;;;6.80;2.15;;;12.30;99.90;;;;;;5060764;28;20123;-92
2023/09/30 02:34:46;;;;;;;7.20;1.90;;;12.30;99.90;;;;;;5061570;28;20044;-93
2023/09/30 02:37:11;;;;;;;5.60;1.90;;;12.30;99.90;;;;;;5060780;28;20052;-93
2023/09/30 02:39:37;;;;;;;5.28;1.65;;;12.30;99.90;;;;;;5042613;28;20123;-93
2023/09/30 02:42:03;;;;;;;8.52;1.83;;;12.30;99.90;;;;;;5027018;28;20047;-93
2023/09/30 02:44:29;;;;;;;7.40;2.13;;;12.30;99.90;;;;;;5043261;28;20036;-95
2023/09/30 02:46:55;;;;;;;8.98;1.90;;;12.30;99.90;;;;;;5043253;28;20044;-92
2023/09/30 02:49:21;;;;;;;5.28;1.90;;;12.30;99.90;;;;;;5050295;28;20051;-93
2023/09/30 02:51:47;;;;;;;6.40;2.10;;;12.30;99.90;;;;;;5062067;28;20556;-93
2023/09/30 02:54:15;;;;;;;5.07;1.95;;;12.30;99.90;;;;;;5046096;28;20082;-92
2023/09/30 02:56:41;;;;;;;6.97;2.25;;;12.30;99.90;;;;;;5054545;28;20044;-92
2023/09/30 02:59:07;;;;;;;4.93;1.80;;;12.30;99.90;;;;;;5019760;28;20041;-92
2023/09/30 03:01:34;;;;;;;7.75;1.95;;;12.30;99.90;;;;;;5037005;28;20041;-95
2023/09/30 03:04:00;;;;;;;6.20;2.20;;;12.30;99.90;;;;;;5010433;28;20523;-93
2023/09/30 03:06:25;;;;;;;7.32;2.10;;;12.30;99.90;;;;;;5023842;28;20037;-94
2023/09/30 03:08:51;;;;;;;6.13;2.13;;;12.30;99.90;;;;;;5021040;28;20373;-94
2023/09/30 03:11:19;;;;;;;4.68;1.83;;;12.30;99.90;;;;;;5007296;28;20476;-94
2023/09/30 03:13:45;;;;;;;6.90;1.88;;;12.30;99.90;;;;;;5004410;28;20132;-94
2023/09/30 03:16:12;;;;;;;5.25;1.92;;;12.40;99.90;;;;;;5003784;28;20275;-94
2023/09/30 03:18:37;;;;;;;5.13;2.05;;;12.30;99.90;;;;;;5033766;28;20094;-95
2023/09/30 03:21:14;;;;;;;5.22;1.83;;;12.30;99.90;;;;;;5006771;28;20040;-94
2023/09/30 03:23:40;;;;;;;6.13;1.98;;;12.30;99.90;;;;;;5044417;28;20040;-93
2023/09/30 03:26:09;;;;;;;6.05;2.30;;;12.30;99.90;;;;;;5011531;28;20059;-92
2023/09/30 03:28:38;;;;;;;5.68;1.95;;;12.30;99.90;;;;;;5015874;28;20529;-90
2023/09/30 03:31:05;;;;;;;6.05;1.85;;;12.30;99.90;;;;;;5022316;28;20036;-93
2023/09/30 03:33:32;;;;;;;5.80;1.88;;;12.40;99.90;;;;;;5039562;28;20037;-93
2023/09/30 03:35:58;;;;;;;11.30;1.80;;;12.30;99.90;;;;;;5049823;28;20036;-95
2023/09/30 03:38:25;;;;;;;5.88;1.80;;;12.30;99.90;;;;;;5007116;28;20040;-94
2023/09/30 03:40:53;;;;;;;6.63;2.10;;;12.30;99.90;;;;;;5035829;28;20039;-95
2023/09/30 03:43:20;;;;;;;6.07;1.83;;;12.30;99.90;;;;;;5027232;28;20040;-94
2023/09/30 03:45:46;;;;;;;8.88;1.75;;;12.30;99.90;;;;;;5040677;28;20052;-94
2023/09/30 03:48:12;;;;;;;5.72;1.80;;;12.30;99.90;;;;;;5024562;28;20431;-93
2023/09/30 03:50:38;;;;;;;7.07;2.05;;;12.40;99.90;;;;;;5006999;28;20037;-90
2023/09/30 03:53:07;;;;;;;4.60;2.25;;;12.20;99.90;;;;;;5032457;28;20044;-93
2023/09/30 03:55:36;;;;;;;6.05;1.88;;;12.20;99.90;;;;;;5032683;28;20040;-93
2023/09/30 03:58:03;;;;;;;8.57;1.80;;;12.20;99.90;;;;;;5032116;28;20056;-93
2023/09/30 04:00:29;;;;;;;3.45;1.60;;;12.20;99.90;;;;;;5022444;28;20076;-93
2023/09/30 04:02:58;;;;;;;6.18;1.63;;;12.20;99.90;;;;;;5035907;28;20480;-92
2023/09/30 04:05:34;;;;;;;7.45;1.95;;;12.20;99.90;;;;;;5063307;28;20053;-92
2023/09/30 04:07:59;;;;;;;7.00;2.08;;;12.20;99.90;;;;;;5040328;28;20111;-93
2023/09/30 04:10:25;;;;;;;4.75;1.70;;;12.20;99.90;;;;;;5044652;28;20090;-93
2023/09/30 04:12:54;;;;;;;9.05;1.75;;;12.10;99.90;;;;;;5010584;28;20041;-93
2023/09/30 04:15:20;;;;;;;4.82;1.40;;;12.10;99.90;;;;;;5037078;28;20039;-93
2023/09/30 04:17:46;;;;;;;5.28;1.60;;;12.10;99.90;;;;;;5003696;28;20040;-93
2023/09/30 04:20:16;;;;;;;4.55;1.65;;;12.10;99.90;;;;;;5067890;28;20513;-93
2023/09/30 04:22:48;;;;;;;8.57;2.00;;;12.00;99.90;;;;;;5025310;28;20523;-93
2023/09/30 04:25:16;;;;;;;6.97;2.22;;;12.00;99.90;;;;;;5035443;28;20044;-92
2023/09/30 04:27:42;;;;;;;6.95;1.95;;;11.90;99.90;;;;;;5056279;28;20492;-94
2023/09/30 04:30:10;;;;;;;7.35;1.65;;;12.00;99.90;;;;;;5022439;28;20073;-93
2023/09/30 04:32:36;;;;;;;6.25;1.48;;;12.00;99.90;;;;;;5006340;28;20044;-95
2023/09/30 04:35:04;;;;;;;6.25;1.63;;;12.00;99.90;;;;;;5038587;28;20047;-93
2023/09/30 04:37:29;;;;;;;8.35;2.25;;;12.00;99.90;;;;;;5035604;28;20045;-94
2023/09/30 04:39:55;;;;;;;7.85;2.03;;;12.00;99.90;;;;;;5004657;28;20498;-92
2023/09/30 04:42:21;;;;;;;8.25;1.90;;;12.00;99.90;;;;;;5053452;28;20062;-95
2023/09/30 04:44:46;;;;;;;8.80;1.40;;;12.10;99.90;;;;;;5022682;28;20037;-95
2023/09/30 04:47:12;;;;;;;8.68;2.15;;;12.00;99.90;;;;;;5022961;28;20133;-94
2023/09/30 04:49:38;;;;;;;4.97;1.70;;;12.00;99.90;;;;;;5036424;28;20049;-93
2023/09/30 04:52:07;;;;;;;6.90;1.80;;;12.10;99.90;;;;;;5023012;28;20044;-94
2023/09/30 04:54:35;;;;;;;4.07;1.50;;;12.00;99.90;;;;;;5022501;28;20045;-94
2023/09/30 04:57:02;;;;;;;5.28;1.50;;;12.10;99.90;;;;;;5030560;28;20064;-92
2023/09/30 04:59:28;;;;;;;5.40;1.98;;;12.10;99.90;;;;;;5078529;28;20051;-93
2023/09/30 05:01:54;;;;;;;6.80;1.77;;;12.10;99.90;;;;;;5044972;28;20075;-94
2023/09/30 05:04:20;;;;;;;7.80;1.88;;;12.10;99.90;;;;;;5045897;28;20463;-94
2023/09/30 05:06:46;;;;;;;6.55;1.75;;;12.00;99.90;;;;;;5045542;28;20044;-93
2023/09/30 05:09:12;;;;;;;7.38;1.80;;;12.00;99.90;;;;;;5027863;28;20040;-93
2023/09/30 05:11:38;;;;;;;6.22;1.70;;;12.00;99.90;;;;;;5045675;28;20036;-93
2023/09/30 05:14:05;;;;;;;5.75;1.98;;;12.00;99.90;;;;;;5048595;28;20076;-94
2023/09/30 05:16:31;;;;;;;6.40;2.05;;;12.00;99.90;;;;;;5033597;28;20110;-93
2023/09/30 05:18:57;;;;;;;8.00;1.70;;;12.00;99.90;;;;;;5045046;28;20485;-93
2023/09/30 05:21:23;;;;;;;6.03;2.00;;;12.00;99.90;;;;;;5045141;28;20044;-94
2023/09/30 05:23:49;;;;;;;9.27;2.20;;;12.00;99.90;;;;;;5061705;28;20054;-92
2023/09/30 05:26:16;;;;;;;9.02;2.00;;;12.00;99.90;;;;;;5062019;28;20039;-94
2023/09/30 05:28:42;;;;;;;5.20;1.98;;;12.00;99.90;;;;;;5045212;28;20051;-93
2023/09/30 05:31:08;;;;;;;8.63;2.20;;;12.00;99.90;;;;;;5028323;28;20067;-94
2023/09/30 05:33:35;;;;;;;5.90;2.50;;;12.00;99.90;;;;;;5028686;28;20043;-94
2023/09/30 05:36:02;;;;;;;7.68;2.25;;;12.00;99.90;;;;;;5029249;28;20391;-94
2023/09/30 05:38:31;;;;;;;6.93;2.60;;;12.00;99.90;;;;;;5044788;28;20043;-92
2023/09/30 05:40:58;;;;;;;10.90;2.95;;;12.00;99.90;;;;;;5045140;28;20498;-94
2023/09/30 05:43:25;;;;;;;6.80;2.42;;;12.00;99.90;;;;;;5094949;28;20089;-93
2023/09/30 05:45:54;;;;;;;9.77;2.88;;;12.00;99.90;;;;;;5061622;28;20096;-93
2023/09/30 05:48:23;;;;;;;6.40;2.20;;;12.00;99.90;;;;;;5044941;28;20036;-93
2023/09/30 05:50:49;;;;;;;6.68;2.25;;;12.00;99.90;;;;;;5043398;28;20047;-93
2023/09/30 05:53:15;;;;;;;7.85;2.70;;;12.00;99.90;;;;;;5044230;28;20115;-94
2023/09/30 05:55:42;;;;;;;7.00;2.60;;;11.90;99.90;;;;;;5061233;28;20044;-95
2023/09/30 05:58:17;;;;;;;7.70;2.97;;;12.00;99.90;;;;;;5078083;28;20052;-96
2023/09/30 06:00:43;;;;;;;6.13;2.90;;;12.00;99.90;;;;;;5061432;28;20123;-94
2023/09/30 06:03:10;;;;;;;8.60;2.92;;;12.10;99.90;;;;;;5044768;28;20079;-95
2023/09/30 06:05:42;;;;;;;7.72;2.58;;;12.10;99.90;;;;;;5047620;28;20031;-95
2023/09/30 06:08:10;;;;;;;7.32;3.00;;;12.10;99.90;;;;;;5064329;28;20501;-93
2023/09/30 06:10:38;;;;;;;8.35;2.92;;;12.20;99.90;;;;;;5075084;28;20036;-94
2023/09/30 06:13:05;;;;;;;10.27;3.22;;;12.20;99.90;;;;;;5060546;28;20036;-93
2023/09/30 06:15:31;;;;;;;9.15;2.88;;;12.20;99.90;;;;;;5094533;28;20040;-89
2023/09/30 06:17:59;;;;;;;7.28;3.15;;;12.20;99.90;;;;;;5111256;28;20063;-94
2023/09/30 06:20:26;;;;;;;8.43;3.97;;;12.30;99.90;;;;;;5060480;28;20048;-94
2023/09/30 06:22:55;;;;;;;10.07;3.55;;;12.20;99.90;;;;;;5061539;28;20148;-93
2023/09/30 06:25:23;;;;;;;9.18;3.20;;;12.30;99.90;;;;;;5060711;28;20040;-95
2023/09/30 06:27:50;;;;;;;8.45;3.30;;;12.40;99.90;;;;;;5094510;28;20040;-94
2023/09/30 06:30:17;;;;;;;9.00;3.72;;;12.70;99.90;;;;;;5077800;28;20093;-94
2023/09/30 06:32:44;;;;;;;8.55;3.80;;;12.50;99.90;;;;;;5044927;28;20050;-93
2023/09/30 06:35:11;;;;;;;8.77;3.03;;;12.60;99.90;;;;;;5094518;28;20044;-95
2023/09/30 06:37:40;;;;;;;9.80;3.80;;;12.60;99.90;;;;;;5060507;28;20128;-93
2023/09/30 06:40:12;;;;;;;9.85;3.20;;;12.70;99.90;;;;;;5041230;28;20071;-93
2023/09/30 06:42:39;;;;;;;7.45;3.53;;;12.70;99.90;;;;;;5044177;28;20119;-93
2023/09/30 06:45:06;;;;;;;11.10;3.97;;;12.80;99.90;;;;;;5083442;28;20093;-91
2023/09/30 06:47:36;;;;;;;7.32;3.15;;;12.90;99.90;;;;;;5032920;28;20641;-94
2023/09/30 06:50:07;;;;;;;8.25;3.35;;;12.90;99.90;;;;;;5060836;28;20040;-96
2023/09/30 06:52:41;;;;;;;9.73;3.55;;;13.00;99.90;;;;;;5044407;28;20032;-94
2023/09/30 06:55:13;;;;;;;5.88;3.20;;;13.10;99.90;;;;;;5047004;28;20044;-95
2023/09/30 06:57:40;;;;;;;9.80;3.50;;;13.20;99.90;;;;;;5050621;28;20057;-93
2023/09/30 07:00:14;;;;;;;7.57;3.78;;;13.30;99.90;;;;;;5045895;28;20045;-92
2023/09/30 07:02:41;;;;;;;7.50;3.35;;;13.40;99.90;;;;;;5040420;28;20044;-93
2023/09/30 07:05:14;;;;;;;6.25;3.15;;;13.50;99.90;;;;;;5040495;28;20040;-95
2023/09/30 07:07:46;;;;;;;11.02;3.72;;;13.60;99.90;;;;;;5047664;28;20040;-96
2023/09/30 07:10:12;;;;;;;7.38;3.50;;;13.40;99.90;;;;;;5027535;28;20036;-94
2023/09/30 07:12:37;;;;;;;9.77;3.50;;;13.80;99.90;;;;;;5043694;28;20035;-90
2023/09/30 07:15:05;;;;;;;7.93;3.53;;;13.90;99.90;;;;;;5012973;28;20040;-91
2023/09/30 07:17:31;;;;;;;5.70;3.30;;;14.00;99.90;;;;;;5041811;28;20036;-94
2023/09/30 07:19:57;;;;;;;8.02;3.42;;;13.50;99.90;;;;;;5038279;28;20043;-91
2023/09/30 07:22:23;;;;;;;8.43;3.33;;;14.20;99.90;;;;;;5039148;28;20037;-91
2023/09/30 07:24:49;;;;;;;6.28;3.42;;;14.30;99.90;;;;;;5038461;28;20050;-90
2023/09/30 07:27:15;;;;;;;9.45;3.55;;;14.40;99.90;;;;;;5032060;28;20028;-91
2023/09/30 07:29:40;;;;;;;8.57;3.35;;;14.50;99.90;;;;;;5018878;28;20028;-91
2023/09/30 07:32:08;;;;;;;6.60;2.67;;;14.60;99.90;;;;;;5053232;28;20032;-90
2023/09/30 07:34:34;;;;;;;7.05;2.97;;;14.70;99.90;;;;;;5057738;28;20039;-88
2023/09/30 07:36:59;;;;;;;8.75;2.90;;;14.80;99.90;;;;;;5042059;28;20093;-89
2023/09/30 07:39:25;;;;;;;6.25;2.70;;;14.90;99.90;;;;;;5057177;28;20055;-89
2023/09/30 07:41:51;;;;;;;7.70;2.50;;;15.00;99.90;;;;;;5040798;28;20070;-89
2023/09/30 07:44:17;;;;;;;4.88;2.35;;;15.10;99.90;;;;;;5058804;28;20153;-88
2023/09/30 07:46:43;;;;;;;6.10;2.70;;;15.30;99.90;;;;;;5032146;28;21590;-89
2023/09/30 07:49:10;;;;;;;7.93;2.55;;;15.40;99.90;;;;;;5044093;28;20039;-90
2023/09/30 07:51:36;;;;;;;6.90;2.10;;;15.60;99.90;;;;;;5077803;28;20487;-89
2023/09/30 07:54:03;;;;;;;6.47;2.72;;;15.70;99.90;;;;;;5029686;28;20052;-87
2023/09/30 07:56:29;;;;;;;8.40;2.55;;;15.40;99.90;;;;;;5052511;28;20075;-88
2023/09/30 07:58:54;;;;;;;7.22;2.70;;;16.50;99.90;;;;;;5005973;28;20076;-93
2023/09/30 08:01:21;;;;;;;7.63;2.83;;;16.80;99.90;;;;;;5009048;28;20045;-91
2023/09/30 08:03:47;;;;;;;8.20;2.58;;;17.10;99.90;;;;;;5016183;28;20044;-94
2023/09/30 08:06:12;;;;;;;12.38;3.05;;;17.30;99.90;;;;;;5008519;28;20044;-93
2023/09/30 08:08:39;;;;;;;6.95;2.47;;;17.50;99.90;;;;;;5006707;28;20037;-94
2023/09/30 08:11:05;;;;;;;6.63;2.78;;;17.60;99.90;;;;;;5023631;28;20037;-94
2023/09/30 08:13:35;;;;;;;7.25;2.20;;;17.80;99.90;;;;;;5007004;28;20078;-92
2023/09/30 08:16:00;;;;;;;5.97;2.55;;;17.90;99.90;;;;;;5044382;28;20090;-91
2023/09/30 08:18:26;;;;;;;10.00;2.47;;;18.30;99.90;;;;;;4996780;28;20045;-93
2023/09/30 08:20:52;;;;;;;6.82;2.55;;;18.40;99.90;;;;;;5000532;28;20076;-94
2023/09/30 08:23:18;;;;;;;8.00;2.72;;;18.50;99.90;;;;;;5023777;28;20045;-95
2023/09/30 08:25:44;;;;;;;8.05;2.63;;;18.40;99.90;;;;;;5005092;28;20063;-92
2023/09/30 08:28:10;;;;;;;7.38;2.53;;;18.30;99.90;;;;;;5013171;28;20037;-94
2023/09/30 08:30:37;;;;;;;6.22;2.63;;;18.10;99.90;;;;;;5040935;28;20124;-92
2023/09/30 08:33:03;;;;;;;5.82;2.53;;;18.10;99.90;;;;;;5028407;28;20068;-93
2023/09/30 08:35:30;;;;;;;11.40;2.28;;;18.00;99.90;;;;;;5026986;28;20048;-94
2023/09/30 08:37:55;;;;;;;4.95;2.20;;;17.90;99.90;;;;;;5042022;28;20051;-93
2023/09/30 08:40:22;;;;;;;4.20;2.08;;;17.90;99.90;;;;;;5029680;28;20044;-94
2023/09/30 08:42:52;;;;;;;10.73;2.10;;;17.90;99.90;;;;;;5046300;28;20051;-93
2023/09/30 08:45:19;;;;;;;7.45;2.40;;;17.90;99.90;;;;;;5063048;28;20067;-94
2023/09/30 08:47:48;;;;;;;6.43;1.80;;;17.90;99.90;;;;;;5063265;28;20036;-92
2023/09/30 08:50:16;;;;;;;5.78;2.00;;;17.90;99.90;;;;;;5048427;28;20028;-93
2023/09/30 08:52:44;;;;;;;5.90;1.52;;;18.00;99.90;;;;;;5046858;28;20039;-92
2023/09/30 08:55:11;;;;;;;7.00;2.55;;;18.00;99.90;;;;;;5029122;28;20051;-91
2023/09/30 08:57:41;;;;;;;8.25;1.90;;;18.10;99.90;;;;;;5026931;28;20062;-92
2023/09/30 09:00:12;;;;;;;5.82;2.08;;;18.00;99.90;;;;;;5079647;28;20564;-92
2023/09/30 09:02:38;;;;;;;11.50;2.83;;;18.10;99.90;;;;;;5040920;28;20084;-92
2023/09/30 09:05:06;;;;;;;7.05;1.70;;;18.20;99.90;;;;;;5058513;28;20040;-92
2023/09/30 09:07:33;;;;;;;9.50;2.33;;;18.20;99.90;;;;;;5042364;28;20041;-92
2023/09/30 09:10:07;;;;;;;5.88;1.85;;;18.30;99.90;;;;;;5041990;28;20036;-92
2023/09/30 09:12:34;;;;;;;10.52;2.05;;;18.30;99.90;;;;;;5058826;28;20083;-91
2023/09/30 09:15:00;;;;;;;7.68;1.98;;;18.30;99.90;;;;;;5041414;28;20487;-91
2023/09/30 09:17:46;;;;;;;9.60;2.08;;;18.30;99.90;;;;;;5067027;28;20044;-93
2023/09/30 09:20:21;;;;;;;36.92;3.90;;;18.40;99.90;;;;;;5022211;28;20060;-91
2023/09/30 09:22:50;;;;;;;22.98;3.60;;;18.50;99.90;;;;;;5039275;28;20443;-92
2023/09/30 09:25:17;;;;;;;13.68;2.35;;;18.50;99.90;;;;;;5037124;28;20045;-92
2023/09/30 09:27:43;;;;;;;26.00;3.30;;;18.60;99.90;;;;;;5022033;28;20044;-91
2023/09/30 09:30:22;;;;;;;23.77;3.10;;;18.60;99.90;;;;;;5039771;28;20386;-91
2023/09/30 09:33:04;;;;;;;23.25;3.22;;;18.70;99.90;;;;;;5098925;28;20055;-91
2023/09/30 09:35:32;;;;;;;17.40;2.38;;;18.80;99.90;;;;;;5041613;28;20044;-92
2023/09/30 09:38:04;;;;;;;13.07;2.05;;;18.90;99.90;;;;;;5037136;28;20037;-92
2023/09/30 09:40:32;;;;;;;24.02;2.70;;;18.90;99.90;;;;;;5054361;28;20069;-94
2023/09/30 09:42:59;;;;;;;32.72;4.07;;;18.90;99.90;;;;;;5024391;28;20037;-91
2023/09/30 09:45:27;;;;;;;15.77;2.47;;;18.90;99.90;;;;;;5012527;28;20618;-91
2023/09/30 09:47:54;;;;;;;10.05;1.98;;;18.90;99.90;;;;;;5053601;28;20689;-90
2023/09/30 09:50:21;;;;;;;13.15;2.00;;;18.90;99.90;;;;;;5022881;28;20499;-92
2023/09/30 09:52:55;;;;;;;7.13;1.48;;;18.90;99.90;;;;;;5049699;28;20130;-90
2023/09/30 09:55:23;;;;;;;7.20;1.55;;;18.90;99.90;;;;;;5051485;28;20033;-91
2023/09/30 09:57:50;;;;;;;8.48;1.65;;;18.90;99.90;;;;;;5066757;28;20052;-89
2023/09/30 10:00:26;;;;;;;7.55;2.30;;;18.90;99.90;;;;;;5032931;28;20052;-90
2023/09/30 10:02:52;;;;;;;10.10;1.67;;;19.00;99.90;;;;;;5059662;28;20054;-91
2023/09/30 10:05:20;;;;;;;5.43;1.77;;;19.00;99.90;;;;;;5032796;28;20047;-92
2023/09/30 10:07:55;;;;;;;5.47;1.30;;;19.00;99.90;;;;;;5060160;28;20502;-91
2023/09/30 10:10:23;;;;;;;6.40;1.58;;;19.00;99.90;;;;;;5056763;28;20124;-91
2023/09/30 10:12:49;;;;;;;4.10;1.25;;;19.00;99.90;;;;;;5059908;28;20039;-90
2023/09/30 10:15:24;;;;;;;7.45;1.45;;;19.00;99.90;;;;;;5056617;28;20272;-93
2023/09/30 10:18:12;;;;;;;4.75;1.40;;;18.90;99.90;;;;;;5060829;28;20043;-95
2023/09/30 10:20:44;;;;;;;4.65;1.65;;;18.70;99.90;;;;;;5053013;28;20050;-94
2023/09/30 10:23:24;;;;;;;7.93;1.52;;;18.60;99.90;;;;;;5057376;28;20040;-93
2023/09/30 10:25:57;;;;;;;5.25;1.35;;;18.40;99.90;;;;;;5073168;28;20052;-89
2023/09/30 10:28:34;;;;;;;7.57;1.38;;;18.30;99.90;;;;;;5056212;28;20068;-90
2023/09/30 10:31:16;;;;;;;4.30;1.10;;;18.30;99.90;;;;;;5069085;28;20066;-92
2023/09/30 10:34:01;;;;;;;7.15;1.38;;;18.20;99.90;;;;;;5098152;28;20652;-91
2023/09/30 10:36:35;;;;;;;5.60;1.13;;;18.10;99.90;;;;;;5108459;28;20103;-91
2023/09/30 10:39:08;;;;;;;5.80;1.27;;;18.10;99.90;;;;;;5061701;28;20063;-90
2023/09/30 10:41:51;;;;;;;9.75;1.35;;;18.30;99.90;;;;;;5107009;28;20074;-95
2023/09/30 10:44:28;;;;;;;7.85;1.50;;;18.10;99.90;;;;;;5094971;28;20039;-94
2023/09/30 10:46:59;;;;;;;5.40;1.38;;;18.50;99.90;;;;;;5057772;28;20471;-88
2023/09/30 10:49:25;;;;;;;4.30;1.13;;;18.60;99.90;;;;;;5053412;28;20032;-93
2023/09/30 10:52:02;;;;;;;4.40;1.05;;;18.80;99.90;;;;;;5041003;28;20033;-92
2023/09/30 10:54:32;;;;;;;7.07;1.25;;;18.80;99.90;;;;;;5058907;28;20044;-94
2023/09/30 10:57:00;;;;;;;4.88;1.25;;;18.80;99.90;;;;;;5083187;28;20044;-93
2023/09/30 10:59:27;;;;;;;5.28;1.15;;;18.70;99.90;;;;;;5079286;28;20044;-96
2023/09/30 11:02:02;;;;;;;6.60;1.33;;;18.60;99.90;;;;;;5118802;28;20047;-96
2023/09/30 11:04:28;;;;;;;3.38;1.20;;;18.50;99.90;;;;;;5116835;28;20067;-96
2023/09/30 11:06:54;;;;;;;4.88;1.20;;;18.40;99.90;;;;;;5065709;28;20074;-92
2023/09/30 11:09:24;;;;;;;7.57;1.35;;;18.40;99.90;;;;;;5019001;28;20028;-96
2023/09/30 11:11:52;;;;;;;3.38;1.15;;;18.50;99.90;;;;;;5045983;28;20039;-96
2023/09/30 11:14:23;;;;;;;6.22;1.17;;;18.60;99.90;;;;;;5063851;28;20036;-96
2023/09/30 11:16:51;;;;;;;4.88;1.20;;;18.60;99.90;;;;;;5071896;28;20039;-96
2023/09/30 11:19:21;;;;;;;5.32;1.05;;;18.40;99.90;;;;;;5063357;28;20518;-95
2023/09/30 11:21:49;;;;;;;5.20;1.00;;;18.50;99.90;;;;;;5042781;28;20036;-93
2023/09/30 11:24:17;;;;;;;3.80;0.70;;;18.40;99.90;;;;;;5101061;28;20415;-96
2023/09/30 11:26:43;;;;;;;3.80;1.10;;;18.30;99.90;;;;;;5039386;28;20036;-91
2023/09/30 11:29:15;;;;;;;4.68;1.13;;;18.10;99.90;;;;;;5061839;28;20032;-96
2023/09/30 11:31:46;;;;;;;3.55;0.95;;;18.00;99.90;;;;;;5058735;28;20089;-96
2023/09/30 11:34:13;;;;;;;7.07;0.98;;;17.80;99.90;;;;;;5055942;28;20048;-94
2023/09/30 11:36:51;;;;;;;4.90;1.40;;;17.70;99.90;;;;;;5060145;28;20040;-96
2023/09/30 11:39:25;;;;;;;3.22;1.00;;;17.60;99.90;;;;;;5048517;28;20400;-96
2023/09/30 11:41:52;;;;;;;5.88;1.00;;;17.60;99.90;;;;;;5061531;28;20036;-94
2023/09/30 11:44:18;;;;;;;4.57;1.10;;;17.50;99.90;;;;;;5039801;28;20042;-93
2023/09/30 11:46:57;;;;;;;3.38;0.80;;;17.60;99.90;;;;;;5045099;28;20092;-95
2023/09/30 11:49:39;;;;;;;2.75;0.55;;;17.60;99.90;;;;;;5060213;28;20043;-95
2023/09/30 11:52:09;;;;;;;5.93;1.02;;;17.60;99.90;;;;;;5066860;28;20090;-95
2023/09/30 11:54:41;;;;;;;4.15;0.90;;;17.60;99.90;;;;;;5095910;28;20046;-95
2023/09/30 11:57:10;;;;;;;4.82;0.77;;;17.60;99.90;;;;;;5061406;28;20126;-95
2023/09/30 11:59:37;;;;;;;5.55;1.13;;;17.50;99.90;;;;;;5087966;28;20048;-94
2023/09/30 12:02:05;;;;;;;4.20;0.88;;;17.50;99.90;;;;;;5090547;28;20071;-93
2023/09/30 12:04:31;;;;;;;4.15;0.80;;;17.50;99.90;;;;;;5092486;28;20043;-93
2023/09/30 12:06:57;;;;;;;3.20;0.85;;;17.50;99.90;;;;;;5042589;28;20047;-94
2023/09/30 12:09:26;;;;;;;3.72;0.85;;;17.50;99.90;;;;;;5062949;28;20032;-95
2023/09/30 12:11:53;;;;;;;4.65;1.08;;;17.50;99.90;;;;;;5077758;28;20071;-96
2023/09/30 12:14:22;;;;;;;4.25;0.77;;;17.50;99.90;;;;;;5031505;28;20040;-95
2023/09/30 12:16:47;;;;;;;4.93;1.10;;;17.50;99.90;;;;;;5042819;28;20043;-95
2023/09/30 12:19:15;;;;;;;5.32;0.75;;;17.40;99.90;;;;;;5059380;28;20050;-94
2023/09/30 12:21:41;;;;;;;6.35;0.90;;;17.50;99.90;;;;;;5043165;28;20047;-95
2023/09/30 12:24:09;;;;;;;3.60;0.82;;;17.50;99.90;;;;;;5059427;28;20097;-95
2023/09/30 12:26:37;;;;;;;4.43;0.93;;;17.50;99.90;;;;;;5042681;28;20482;-94
2023/09/30 12:29:04;;;;;;;4.18;1.17;;;17.50;99.90;;;;;;5043251;28;20037;-95
2023/09/30 12:31:30;;;;;;;6.72;1.10;;;17.60;99.90;;;;;;5076590;28;20054;-95
2023/09/30 12:33:56;;;;;;;5.57;1.20;;;17.70;99.90;;;;;;5043328;28;20487;-95
2023/09/30 12:36:22;;;;;;;3.63;1.00;;;17.70;99.90;;;;;;5025161;28;20043;-94
2023/09/30 12:38:48;;;;;;;4.72;1.02;;;17.80;99.90;;;;;;5090733;28;20040;-94
2023/09/30 12:41:15;;;;;;;4.07;1.05;;;17.90;99.90;;;;;;5073246;28;20513;-95
2023/09/30 12:43:42;;;;;;;4.25;0.95;;;18.10;99.90;;;;;;5053993;28;20059;-96
2023/09/30 12:46:09;;;;;;;3.95;1.10;;;18.10;99.90;;;;;;5059771;28;20178;-95
2023/09/30 12:48:35;;;;;;;4.60;0.82;;;18.20;99.90;;;;;;5059673;28;20070;-93